createdAt,value
2023-02-22T00:01:01.921Z,8.52
2023-02-22T00:02:11.534Z,8.53
2023-02-22T00:03:25.895Z,8.41
2023-02-22T00:04:30.408Z,8.47
2023-02-22T00:05:36.511Z,8.41
2023-02-22T00:06:40.627Z,8.43
2023-02-22T00:07:53.169Z,8.47
2023-02-22T00:08:58.002Z,8.45
2023-02-22T00:10:02.335Z,8.49
2023-02-22T00:11:11.459Z,8.48
2023-02-22T00:12:17.049Z,8.53
2023-02-22T00:13:29.511Z,8.55
2023-02-22T00:14:34.661Z,8.57
2023-02-22T00:15:45.659Z,8.56
2023-02-22T00:16:54.706Z,8.55
2023-02-22T00:17:58.837Z,8.58
2023-02-22T00:19:02.405Z,8.57
2023-02-22T00:20:21.266Z,8.56
2023-02-22T00:21:27.982Z,8.54
2023-02-22T00:22:31.581Z,8.57
2023-02-22T00:23:35.219Z,8.59
2023-02-22T00:24:39.130Z,8.51
2023-02-22T00:25:46.969Z,8.53
2023-02-22T00:26:56.442Z,8.51
2023-02-22T00:28:01.449Z,8.48
2023-02-22T00:29:15.123Z,8.46
2023-02-22T00:30:30.264Z,8.43
2023-02-22T00:31:41.658Z,8.46
2023-02-22T00:32:47.395Z,8.49
2023-02-22T00:33:52.477Z,8.48
2023-02-22T00:34:57.607Z,8.50
2023-02-22T00:36:01.608Z,8.47
2023-02-22T00:37:09.955Z,8.47
2023-02-22T00:38:19.847Z,8.48
2023-02-22T00:39:23.849Z,8.49
2023-02-22T00:40:34.615Z,8.50
2023-02-22T00:41:39.161Z,8.41
2023-02-22T00:42:43.176Z,8.40
2023-02-22T00:43:49.478Z,8.34
2023-02-22T00:44:55.160Z,8.34
2023-02-22T00:45:59.925Z,8.30
2023-02-22T00:47:04.912Z,8.34
2023-02-22T00:48:12.028Z,8.38
2023-02-22T00:49:18.084Z,8.39
2023-02-22T00:50:26.906Z,8.37
2023-02-22T00:51:34.498Z,8.36
2023-02-22T00:52:39.306Z,8.39
2023-02-22T00:53:43.716Z,8.40
2023-02-22T00:54:52.064Z,8.36
2023-02-22T00:55:56.786Z,8.36
2023-02-22T00:57:04.525Z,8.37
2023-02-22T00:58:10.259Z,8.38
2023-02-22T00:59:17.525Z,8.40
2023-02-22T01:00:33.974Z,8.41
2023-02-22T01:01:38.503Z,8.41
2023-02-22T01:02:55.193Z,8.44
2023-02-22T01:04:02.136Z,8.44
2023-02-22T01:05:12.690Z,8.39
2023-02-22T01:06:16.561Z,8.43
2023-02-22T01:07:21.015Z,8.45
2023-02-22T01:08:25.318Z,8.48
2023-02-22T01:09:31.889Z,8.48
2023-02-22T01:10:37.843Z,8.49
2023-02-22T01:11:41.758Z,8.47
2023-02-22T01:12:50.121Z,8.48
2023-02-22T01:13:54.268Z,8.49
2023-02-22T01:14:58.305Z,8.46
2023-02-22T01:16:02.928Z,8.40
2023-02-22T01:17:09.201Z,8.43
2023-02-22T01:18:18.481Z,8.45
2023-02-22T01:19:27.505Z,8.47
2023-02-22T01:20:31.576Z,8.45
2023-02-22T01:21:37.722Z,8.45
2023-02-22T01:22:49.666Z,8.47
2023-02-22T01:23:56.163Z,8.50
2023-02-22T01:25:17.022Z,8.52
2023-02-22T01:26:27.633Z,8.47
2023-02-22T01:27:37.323Z,8.46
2023-02-22T01:28:41.211Z,8.43
2023-02-22T01:29:50.591Z,8.44
2023-02-22T01:30:57.257Z,8.42
2023-02-22T01:32:02.522Z,8.42
2023-02-22T01:33:16.804Z,8.44
2023-02-22T01:34:27.004Z,8.39
2023-02-22T01:35:36.509Z,8.36
2023-02-22T01:36:44.774Z,8.37
2023-02-22T01:37:49.868Z,8.32
2023-02-22T01:38:55.037Z,8.28
2023-02-22T01:40:17.068Z,8.23
2023-02-22T01:41:24.382Z,8.27
2023-02-22T01:42:29.894Z,8.28
2023-02-22T01:43:35.300Z,8.29
2023-02-22T01:44:42.398Z,8.31
2023-02-22T01:45:59.828Z,8.30
2023-02-22T01:47:11.712Z,8.32
2023-02-22T01:48:47.457Z,8.33
2023-02-22T01:49:54.406Z,8.33
2023-02-22T01:51:23.770Z,8.33
2023-02-22T01:52:27.592Z,8.33
2023-02-22T01:53:43.799Z,8.33
2023-02-22T01:54:56.626Z,8.30
2023-02-22T01:56:01.605Z,8.29
2023-02-22T01:57:35.314Z,8.33
2023-02-22T01:58:48.406Z,8.34
2023-02-22T02:00:00.445Z,8.35
2023-02-22T02:01:05.461Z,8.37
2023-02-22T02:02:10.734Z,8.33
2023-02-22T02:03:27.811Z,8.35
2023-02-22T02:04:33.686Z,8.37
2023-02-22T02:05:39.224Z,8.35
2023-02-22T02:06:44.334Z,8.36
2023-02-22T02:07:49.495Z,8.37
2023-02-22T02:09:22.042Z,8.38
2023-02-22T02:10:27.781Z,8.38
2023-02-22T02:11:33.668Z,8.38
2023-02-22T02:12:37.752Z,8.39
2023-02-22T02:13:41.718Z,8.35
2023-02-22T02:14:48.458Z,8.37
2023-02-22T02:15:56.392Z,8.38
2023-02-22T02:17:03.865Z,8.38
2023-02-22T02:18:13.620Z,8.37
2023-02-22T02:20:00.047Z,8.39
2023-02-22T02:21:35.069Z,8.37
2023-02-22T02:23:13.113Z,8.40
2023-02-22T02:24:44.427Z,8.40
2023-02-22T02:26:18.004Z,8.40
2023-02-22T02:27:41.638Z,8.41
2023-02-22T02:29:24.108Z,8.40
2023-02-22T02:31:02.432Z,8.41
2023-02-22T02:32:34.574Z,8.40
2023-02-22T02:34:05.804Z,8.35
2023-02-22T02:35:26.541Z,8.37
2023-02-22T02:36:57.036Z,8.37
2023-02-22T02:38:42.227Z,8.35
2023-02-22T02:40:30.799Z,8.37
2023-02-22T02:41:43.476Z,8.38
2023-02-22T02:43:18.076Z,8.35
2023-02-22T02:44:36.482Z,8.34
2023-02-22T02:45:56.508Z,8.31
2023-02-22T02:47:23.161Z,8.19
2023-02-22T02:48:31.210Z,8.18
2023-02-22T02:49:55.677Z,8.17
2023-02-22T02:51:03.516Z,8.18
2023-02-22T02:52:13.721Z,8.21
2023-02-22T02:53:25.322Z,8.23
2023-02-22T02:54:30.884Z,8.20
2023-02-22T02:55:37.330Z,8.17
2023-02-22T02:56:45.704Z,8.20
2023-02-22T02:57:52.877Z,8.23
2023-02-22T02:58:57.793Z,8.23
2023-02-22T03:00:01.734Z,8.25
2023-02-22T03:01:06.502Z,8.26
2023-02-22T03:02:40.711Z,8.26
2023-02-22T03:03:44.309Z,8.28
2023-02-22T03:05:32.018Z,8.28
2023-02-22T03:06:55.094Z,8.28
2023-02-22T03:08:57.226Z,8.26
2023-02-22T03:10:25.425Z,8.27
2023-02-22T03:11:51.409Z,8.27
2023-02-22T03:13:45.260Z,8.23
2023-02-22T03:15:32.603Z,8.21
2023-02-22T03:17:15.586Z,8.16
2023-02-22T03:18:36.595Z,8.06
2023-02-22T03:19:59.335Z,8.03
2023-02-22T03:21:20.512Z,8.10
2023-02-22T03:22:53.464Z,8.13
2023-02-22T03:24:18.914Z,8.17
2023-02-22T03:25:50.563Z,8.13
2023-02-22T03:27:10.482Z,8.14
2023-02-22T03:28:19.973Z,8.13
2023-02-22T03:29:28.782Z,8.17
2023-02-22T03:30:40.167Z,8.15
2023-02-22T03:31:55.037Z,8.09
2023-02-22T03:33:09.321Z,8.10
2023-02-22T03:34:43.411Z,8.06
2023-02-22T03:35:57.444Z,8.09
2023-02-22T03:37:16.251Z,8.06
2023-02-22T03:38:21.677Z,8.06
2023-02-22T03:39:31.280Z,8.03
2023-02-22T03:40:43.527Z,8.07
2023-02-22T03:41:53.050Z,8.12
2023-02-22T03:43:10.538Z,8.14
2023-02-22T03:44:21.198Z,8.16
2023-02-22T03:45:28.643Z,8.13
2023-02-22T03:46:38.356Z,8.14
2023-02-22T03:47:51.731Z,8.14
2023-02-22T03:49:02.099Z,8.17
2023-02-22T03:50:18.423Z,8.18
2023-02-22T03:51:24.779Z,8.14
2023-02-22T03:52:28.944Z,8.16
2023-02-22T03:53:37.298Z,8.19
2023-02-22T03:54:41.490Z,8.22
2023-02-22T03:55:51.729Z,8.21
2023-02-22T03:57:04.888Z,8.23
2023-02-22T03:58:15.039Z,8.21
2023-02-22T03:59:19.880Z,8.21
2023-02-22T04:00:28.852Z,8.24
2023-02-22T04:01:33.260Z,8.23
2023-02-22T04:02:37.318Z,8.27
2023-02-22T04:03:42.403Z,8.29
2023-02-22T04:04:47.836Z,8.24
2023-02-22T04:08:26.143Z,8.25
2023-02-22T04:09:30.150Z,8.22
2023-02-22T04:10:34.141Z,8.25
2023-02-22T04:11:37.888Z,8.27
2023-02-22T04:12:41.830Z,8.30
2023-02-22T04:13:45.774Z,8.27
2023-02-22T04:14:49.682Z,8.29
2023-02-22T04:15:54.208Z,8.28
2023-02-22T04:16:58.480Z,8.28
2023-02-22T04:18:02.345Z,8.29
2023-02-22T04:19:09.647Z,8.30
2023-02-22T04:20:14.233Z,8.27
2023-02-22T04:21:18.026Z,8.29
2023-02-22T04:22:22.329Z,8.28
2023-02-22T04:23:27.189Z,8.30
2023-02-22T04:24:31.093Z,8.30
2023-02-22T04:25:34.907Z,8.31
2023-02-22T04:26:38.621Z,8.29
2023-02-22T04:27:42.197Z,8.32
2023-02-22T04:28:46.024Z,8.33
2023-02-22T04:29:51.378Z,8.32
2023-02-22T04:30:55.412Z,8.32
2023-02-22T04:31:59.186Z,8.32
2023-02-22T04:33:02.821Z,8.32
2023-02-22T04:34:11.517Z,8.29
2023-02-22T04:35:15.633Z,8.26
2023-02-22T04:36:19.365Z,8.27
2023-02-22T04:37:23.185Z,8.29
2023-02-22T04:38:27.372Z,8.26
2023-02-22T04:39:31.044Z,8.28
2023-02-22T04:40:35.657Z,8.26
2023-02-22T04:41:39.724Z,8.26
2023-02-22T04:42:44.057Z,8.23
2023-02-22T04:43:48.385Z,8.21
2023-02-22T04:44:54.943Z,8.24
2023-02-22T04:45:58.755Z,8.24
2023-02-22T04:47:02.270Z,8.21
2023-02-22T04:48:15.353Z,8.21
2023-02-22T04:49:19.343Z,8.19
2023-02-22T04:50:23.544Z,8.18
2023-02-22T04:51:27.477Z,8.20
2023-02-22T04:52:31.090Z,8.20
2023-02-22T04:53:36.235Z,8.20
2023-02-22T04:54:42.999Z,8.22
2023-02-22T04:55:47.058Z,8.22
2023-02-22T04:56:52.434Z,8.19
2023-02-22T04:57:57.569Z,8.16
2023-02-22T04:59:01.328Z,8.18
2023-02-22T05:00:11.010Z,8.19
2023-02-22T05:01:17.762Z,8.21
2023-02-22T05:02:22.182Z,8.23
2023-02-22T05:03:25.862Z,8.22
2023-02-22T05:04:30.085Z,8.24
2023-02-22T05:05:33.934Z,8.24
2023-02-22T05:06:38.212Z,8.19
2023-02-22T05:07:42.507Z,8.19
2023-02-22T05:08:46.195Z,8.20
2023-02-22T05:09:50.331Z,8.17
2023-02-22T05:10:54.828Z,8.18
2023-02-22T05:11:58.458Z,8.14
2023-02-22T05:13:04.013Z,8.16
2023-02-22T05:14:10.134Z,8.14
2023-02-22T05:15:20.719Z,8.15
2023-02-22T05:16:24.759Z,8.12
2023-02-22T05:17:29.155Z,8.13
2023-02-22T05:18:33.026Z,8.13
2023-02-22T05:19:37.449Z,8.13
2023-02-22T05:20:41.303Z,8.13
2023-02-22T05:21:45.368Z,8.13
2023-02-22T05:22:49.486Z,8.15
2023-02-22T05:23:53.268Z,8.15
2023-02-22T05:24:57.075Z,8.12
2023-02-22T05:26:01.234Z,8.10
2023-02-22T05:27:05.446Z,8.13
2023-02-22T05:28:15.016Z,8.13
2023-02-22T05:29:19.177Z,8.12
2023-02-22T05:30:30.486Z,8.12
2023-02-22T05:31:34.227Z,8.12
2023-02-22T05:32:38.062Z,8.11
2023-02-22T05:33:42.108Z,8.10
2023-02-22T05:34:46.176Z,8.09
2023-02-22T05:35:50.673Z,8.05
2023-02-22T05:36:57.856Z,8.06
2023-02-22T05:38:03.848Z,8.06
2023-02-22T05:39:10.057Z,8.07
2023-02-22T05:40:14.966Z,8.05
2023-02-22T05:41:18.754Z,8.06
2023-02-22T05:42:23.953Z,8.05
2023-02-22T05:43:27.819Z,8.07
2023-02-22T05:44:31.396Z,8.06
2023-02-22T05:45:36.860Z,8.05
2023-02-22T05:46:42.319Z,8.05
2023-02-22T05:47:46.960Z,8.04
2023-02-22T05:48:51.631Z,8.05
2023-02-22T05:49:55.661Z,8.04
2023-02-22T05:51:00.252Z,8.06
2023-02-22T05:52:03.941Z,8.07
2023-02-22T05:53:14.181Z,8.06
2023-02-22T05:54:18.003Z,8.07
2023-02-22T05:55:24.137Z,8.05
2023-02-22T05:56:31.332Z,8.05
2023-02-22T05:57:35.834Z,8.02
2023-02-22T05:58:39.892Z,8.03
2023-02-22T05:59:43.641Z,8.00
2023-02-22T06:00:47.644Z,7.96
2023-02-22T06:01:51.650Z,7.94
2023-02-22T06:03:09.711Z,7.97
2023-02-22T06:04:13.423Z,7.95
2023-02-22T06:05:17.164Z,7.96
2023-02-22T06:06:22.562Z,7.97
2023-02-22T06:07:28.876Z,7.98
2023-02-22T06:08:33.081Z,8.00
2023-02-22T06:09:37.267Z,7.94
2023-02-22T06:10:40.921Z,7.95
2023-02-22T06:11:44.863Z,7.97
2023-02-22T06:12:50.655Z,7.98
2023-02-22T06:13:55.024Z,7.91
2023-02-22T06:14:59.214Z,7.96
2023-02-22T06:16:04.770Z,7.99
2023-02-22T06:17:14.699Z,8.02
2023-02-22T06:18:18.596Z,8.03
2023-02-22T06:19:22.390Z,8.02
2023-02-22T06:20:29.130Z,8.05
2023-02-22T06:21:33.232Z,8.06
2023-02-22T06:22:36.801Z,8.08
2023-02-22T06:23:40.510Z,8.09
2023-02-22T06:24:44.554Z,8.06
2023-02-22T06:25:49.358Z,8.07
2023-02-22T06:27:02.274Z,8.09
2023-02-22T06:28:09.551Z,8.10
2023-02-22T06:29:13.896Z,8.10
2023-02-22T06:30:21.171Z,8.12
2023-02-22T06:31:25.436Z,8.12
2023-02-22T06:32:29.326Z,8.14
2023-02-22T06:33:33.164Z,8.12
2023-02-22T06:34:37.453Z,8.13
2023-02-22T06:35:41.247Z,8.12
2023-02-22T06:36:47.948Z,8.09
2023-02-22T06:37:52.095Z,8.13
2023-02-22T06:38:58.608Z,8.13
2023-02-22T06:40:05.504Z,8.15
2023-02-22T06:41:12.801Z,8.15
2023-02-22T06:42:17.294Z,8.17
2023-02-22T06:43:22.871Z,8.16
2023-02-22T06:44:26.882Z,8.19
2023-02-22T06:45:31.256Z,8.19
2023-02-22T06:46:35.241Z,8.19
2023-02-22T06:47:41.417Z,8.21
2023-02-22T06:48:45.252Z,8.22
2023-02-22T06:50:00.882Z,8.24
2023-02-22T06:51:05.729Z,8.25
2023-02-22T06:52:11.236Z,8.28
2023-02-22T06:53:15.097Z,8.29
2023-02-22T06:54:19.205Z,8.32
2023-02-22T06:55:30.220Z,8.34
2023-02-22T06:56:34.005Z,8.33
2023-02-22T06:57:37.765Z,8.33
2023-02-22T06:58:41.399Z,8.34
2023-02-22T06:59:45.500Z,8.36
2023-02-22T07:00:49.776Z,8.38
2023-02-22T07:01:55.058Z,8.41
2023-02-22T07:03:00.384Z,8.43
2023-02-22T07:04:05.097Z,8.43
2023-02-22T07:05:17.282Z,8.44
2023-02-22T07:06:21.611Z,8.46
2023-02-22T07:07:26.264Z,8.44
2023-02-22T07:08:30.983Z,8.44
2023-02-22T07:09:34.962Z,8.45
2023-02-22T07:10:41.494Z,8.44
2023-02-22T07:11:45.420Z,8.43
2023-02-22T07:12:49.395Z,8.46
2023-02-22T07:13:53.420Z,8.47
2023-02-22T07:14:57.346Z,8.48
2023-02-22T07:16:07.782Z,8.50
2023-02-22T07:17:13.123Z,8.53
2023-02-22T07:18:17.488Z,8.52
2023-02-22T07:19:21.232Z,8.55
2023-02-22T07:20:28.729Z,8.56
2023-02-22T07:21:32.660Z,8.60
2023-02-22T07:22:36.469Z,8.59
2023-02-22T07:23:40.399Z,8.56
2023-02-22T07:24:44.776Z,8.56
2023-02-22T07:25:49.086Z,8.60
2023-02-22T07:26:54.233Z,8.56
2023-02-22T07:27:59.761Z,8.57
2023-02-22T07:29:03.779Z,8.59
2023-02-22T07:30:25.749Z,8.62
2023-02-22T07:31:39.667Z,8.64
2023-02-22T07:32:44.637Z,8.64
2023-02-22T07:33:49.329Z,8.63
2023-02-22T07:35:03.350Z,8.68
2023-02-22T07:36:16.126Z,8.67
2023-02-22T07:37:21.488Z,8.59
2023-02-22T07:38:25.406Z,8.63
2023-02-22T07:39:29.322Z,8.63
2023-02-22T07:40:34.170Z,8.56
2023-02-22T07:41:38.394Z,8.63
2023-02-22T07:43:09.524Z,8.66
2023-02-22T07:44:14.759Z,8.57
2023-02-22T07:45:19.980Z,8.56
2023-02-22T07:46:24.717Z,8.63
2023-02-22T07:47:28.474Z,8.69
2023-02-22T07:48:33.163Z,8.70
2023-02-22T07:49:38.459Z,8.68
2023-02-22T07:50:42.835Z,8.69
2023-02-22T07:51:46.955Z,8.69
2023-02-22T07:52:55.102Z,8.76
2023-02-22T07:53:59.066Z,8.67
2023-02-22T07:55:03.498Z,8.69
2023-02-22T07:56:11.551Z,8.77
2023-02-22T07:57:16.724Z,8.78
2023-02-22T07:58:24.354Z,8.81
2023-02-22T07:59:28.505Z,8.84
2023-02-22T08:00:41.343Z,8.90
2023-02-22T08:01:47.751Z,8.93
2023-02-22T08:02:52.213Z,8.94
2023-02-22T08:03:56.652Z,9.01
2023-02-22T08:05:15.300Z,8.99
2023-02-22T08:06:21.102Z,8.99
2023-02-22T08:07:24.879Z,8.97
2023-02-22T08:08:32.016Z,8.89
2023-02-22T08:09:35.898Z,8.92
2023-02-22T08:10:39.864Z,8.93
2023-02-22T08:11:43.805Z,8.98
2023-02-22T08:12:56.106Z,9.02
2023-02-22T08:14:00.203Z,9.00
2023-02-22T08:15:17.038Z,9.04
2023-02-22T08:16:29.782Z,9.01
2023-02-22T08:17:36.167Z,9.11
2023-02-22T08:20:03.739Z,9.03
2023-02-22T08:21:10.847Z,9.03
2023-02-22T08:22:14.600Z,9.05
2023-02-22T08:23:28.886Z,8.96
2023-02-22T08:24:32.826Z,8.99
2023-02-22T08:25:50.317Z,8.97
2023-02-22T08:26:54.179Z,9.05
2023-02-22T08:28:12.497Z,9.07
2023-02-22T08:29:16.724Z,8.99
2023-02-22T08:30:24.898Z,8.93
2023-02-22T08:31:28.819Z,9.00
2023-02-22T08:32:33.104Z,8.99
2023-02-22T08:33:37.108Z,9.11
2023-02-22T08:34:41.039Z,9.18
2023-02-22T08:35:46.631Z,9.23
2023-02-22T08:36:51.139Z,9.24
2023-02-22T08:38:18.459Z,9.27
2023-02-22T08:39:23.149Z,9.38
2023-02-22T08:40:33.894Z,9.42
2023-02-22T08:41:38.239Z,9.50
2023-02-22T08:42:42.392Z,9.49
2023-02-22T08:43:46.203Z,9.42
2023-02-22T08:44:50.595Z,9.42
2023-02-22T08:45:57.784Z,9.33
2023-02-22T08:47:02.368Z,9.31
2023-02-22T08:48:10.532Z,9.37
2023-02-22T08:49:14.482Z,9.44
2023-02-22T08:50:26.075Z,9.42
2023-02-22T08:51:30.229Z,9.49
2023-02-22T08:52:36.266Z,9.56
2023-02-22T08:53:40.176Z,9.63
2023-02-22T08:54:46.802Z,9.66
2023-02-22T08:55:51.986Z,9.68
2023-02-22T08:56:58.333Z,9.73
2023-02-22T08:58:04.968Z,9.77
2023-02-22T08:59:13.158Z,9.80
2023-02-22T09:00:26.388Z,9.76
2023-02-22T09:01:33.405Z,9.79
2023-02-22T09:02:37.497Z,9.80
2023-02-22T09:03:41.940Z,9.82
2023-02-22T09:04:49.089Z,9.80
2023-02-22T09:06:01.408Z,9.78
2023-02-22T09:07:06.050Z,9.70
2023-02-22T09:08:17.935Z,9.68
2023-02-22T09:09:22.290Z,9.71
2023-02-22T09:10:31.145Z,9.76
2023-02-22T09:11:35.176Z,9.78
2023-02-22T09:12:39.898Z,9.84
2023-02-22T09:13:44.101Z,9.88
2023-02-22T09:14:47.701Z,9.82
2023-02-22T09:15:51.722Z,9.90
2023-02-22T09:16:56.360Z,9.89
2023-02-22T09:18:01.207Z,9.89
2023-02-22T09:19:05.970Z,9.88
2023-02-22T09:20:12.522Z,9.76
2023-02-22T09:21:17.082Z,9.79
2023-02-22T09:22:20.950Z,9.66
2023-02-22T09:23:26.350Z,9.73
2023-02-22T09:24:31.093Z,9.67
2023-02-22T09:25:36.353Z,9.67
2023-02-22T09:26:40.585Z,9.68
2023-02-22T09:27:48.075Z,9.63
2023-02-22T09:28:52.180Z,9.66
2023-02-22T09:29:56.626Z,9.56
2023-02-22T09:31:01.125Z,9.53
2023-02-22T09:32:06.016Z,9.48
2023-02-22T09:33:16.109Z,9.38
2023-02-22T09:34:22.857Z,9.38
2023-02-22T09:35:27.749Z,9.47
2023-02-22T09:36:31.658Z,9.45
2023-02-22T09:37:35.954Z,9.42
2023-02-22T09:38:39.791Z,9.46
2023-02-22T09:39:44.979Z,9.55
2023-02-22T09:41:03.309Z,9.58
2023-02-22T09:42:26.097Z,9.60
2023-02-22T09:43:40.730Z,9.65
2023-02-22T09:45:13.012Z,9.61
2023-02-22T09:46:42.241Z,9.66
2023-02-22T09:47:56.997Z,9.67
2023-02-22T09:49:15.601Z,9.68
2023-02-22T09:50:29.502Z,9.64
2023-02-22T09:51:41.621Z,9.65
2023-02-22T09:53:15.960Z,9.61
2023-02-22T09:54:54.782Z,9.67
2023-02-22T09:56:19.446Z,9.68
2023-02-22T09:57:37.645Z,9.69
2023-02-22T09:58:47.761Z,9.76
2023-02-22T10:00:13.753Z,9.79
2023-02-22T10:01:33.104Z,9.87
2023-02-22T10:03:16.564Z,9.82
2023-02-22T10:04:59.576Z,9.87
2023-02-22T10:06:15.397Z,9.88
2023-02-22T10:07:28.845Z,9.88
2023-02-22T10:08:35.537Z,9.90
2023-02-22T10:09:45.962Z,9.92
2023-02-22T10:11:41.363Z,9.85
2023-02-22T10:13:14.309Z,9.85
2023-02-22T10:14:44.107Z,9.80
2023-02-22T10:16:21.214Z,9.80
2023-02-22T10:18:00.989Z,9.89
2023-02-22T10:19:25.718Z,9.93
2023-02-22T10:20:42.042Z,9.94
2023-02-22T10:22:12.750Z,9.91
2023-02-22T10:23:41.906Z,9.88
2023-02-22T10:25:06.143Z,9.84
2023-02-22T10:26:28.789Z,9.94
2023-02-22T10:27:42.894Z,9.90
2023-02-22T10:29:29.432Z,9.98
2023-02-22T10:30:43.754Z,10.00
2023-02-22T10:31:57.280Z,10.01
2023-02-22T10:33:22.855Z,10.17
2023-02-22T10:34:34.283Z,10.13
2023-02-22T10:35:46.777Z,10.14
2023-02-22T10:37:31.017Z,10.14
2023-02-22T10:38:36.038Z,10.33
2023-02-22T10:39:42.514Z,10.42
2023-02-22T10:40:55.381Z,10.44
2023-02-22T10:42:07.845Z,10.37
2023-02-22T10:43:12.857Z,10.47
2023-02-22T10:44:17.291Z,10.49
2023-02-22T10:45:28.612Z,10.63
2023-02-22T10:46:35.445Z,10.64
2023-02-22T10:47:39.793Z,10.74
2023-02-22T10:48:52.100Z,10.84
2023-02-22T10:50:01.757Z,10.85
2023-02-22T10:51:10.042Z,10.88
2023-02-22T10:52:31.563Z,10.86
2023-02-22T10:53:40.891Z,10.87
2023-02-22T10:54:52.054Z,10.95
2023-02-22T10:56:18.932Z,10.97
2023-02-22T10:57:32.278Z,11.00
2023-02-22T10:59:01.595Z,10.99
2023-02-22T11:00:30.792Z,11.01
2023-02-22T11:01:43.054Z,11.01
2023-02-22T11:03:03.289Z,10.96
2023-02-22T11:04:14.127Z,11.02
2023-02-22T11:05:38.090Z,11.11
2023-02-22T11:07:06.799Z,11.05
2023-02-22T11:08:28.254Z,11.09
2023-02-22T11:09:45.764Z,11.02
2023-02-22T11:10:57.174Z,10.93
2023-02-22T11:12:38.038Z,10.87
2023-02-22T11:13:42.629Z,10.75
2023-02-22T11:14:47.766Z,10.79
2023-02-22T11:15:58.524Z,10.66
2023-02-22T11:17:08.842Z,10.60
2023-02-22T11:18:35.816Z,10.67
2023-02-22T11:19:49.560Z,10.65
2023-02-22T11:21:08.294Z,10.69
2023-02-22T11:22:31.128Z,10.62
2023-02-22T11:23:38.766Z,10.62
2023-02-22T11:25:01.577Z,10.59
2023-02-22T11:26:19.561Z,10.64
2023-02-22T11:27:40.830Z,10.67
2023-02-22T11:28:56.756Z,10.50
2023-02-22T11:30:27.861Z,10.44
2023-02-22T11:31:32.830Z,10.39
2023-02-22T11:32:43.532Z,10.34
2023-02-22T11:34:03.574Z,10.28
2023-02-22T11:35:28.278Z,10.21
2023-02-22T11:36:40.642Z,10.09
2023-02-22T11:37:44.843Z,10.17
2023-02-22T11:38:59.736Z,10.23
2023-02-22T11:40:23.013Z,10.12
2023-02-22T11:41:37.626Z,10.14
2023-02-22T11:42:41.952Z,10.16
2023-02-22T11:43:52.888Z,10.17
2023-02-22T11:45:27.898Z,10.18
2023-02-22T11:46:37.599Z,10.05
2023-02-22T11:48:20.462Z,10.06
2023-02-22T11:49:39.111Z,10.03
2023-02-22T11:51:15.935Z,9.99
2023-02-22T11:52:40.246Z,9.85
2023-02-22T11:54:13.630Z,9.87
2023-02-22T11:55:42.719Z,10.03
2023-02-22T11:56:51.833Z,10.15
2023-02-22T11:58:18.591Z,10.19
2023-02-22T11:59:41.985Z,10.15
2023-02-22T12:01:01.614Z,10.21
2023-02-22T12:02:56.307Z,10.19
2023-02-22T12:04:25.094Z,10.25
2023-02-22T12:06:10.459Z,10.38
2023-02-22T12:07:31.017Z,10.29
2023-02-22T12:09:04.529Z,10.34
2023-02-22T12:10:39.757Z,10.24
2023-02-22T12:12:08.374Z,10.15
2023-02-22T12:13:41.609Z,10.19
2023-02-22T12:15:40.596Z,10.11
2023-02-22T12:17:35.105Z,10.20
2023-02-22T12:19:36.442Z,10.11
2023-02-22T12:20:56.650Z,10.19
2023-02-22T12:22:20.069Z,10.11
2023-02-22T12:23:33.873Z,10.14
2023-02-22T12:25:00.700Z,10.21
2023-02-22T12:26:32.354Z,10.27
2023-02-22T12:27:53.241Z,10.26
2023-02-22T12:29:25.870Z,10.28
2023-02-22T12:30:42.708Z,10.31
2023-02-22T12:32:10.399Z,10.26
2023-02-22T12:33:24.754Z,10.16
2023-02-22T12:34:29.241Z,10.21
2023-02-22T12:35:39.734Z,10.30
2023-02-22T12:37:21.251Z,10.29
2023-02-22T12:38:44.683Z,10.28
2023-02-22T12:40:10.548Z,10.35
2023-02-22T12:41:47.379Z,10.25
2023-02-22T12:43:22.846Z,10.24
2023-02-22T12:44:40.740Z,10.13
2023-02-22T12:46:29.225Z,10.05
2023-02-22T12:48:12.684Z,10.06
2023-02-22T12:49:40.480Z,10.06
2023-02-22T12:50:49.560Z,10.08
2023-02-22T12:52:19.393Z,10.17
2023-02-22T12:53:34.874Z,10.25
2023-02-22T12:55:16.578Z,10.23
2023-02-22T12:56:51.357Z,10.19
2023-02-22T12:58:14.954Z,10.18
2023-02-22T13:00:14.223Z,10.11
2023-02-22T13:01:26.500Z,10.16
2023-02-22T13:03:03.599Z,10.14
2023-02-22T13:04:20.591Z,10.11
2023-02-22T13:05:25.875Z,10.14
2023-02-22T13:06:39.274Z,10.12
2023-02-22T13:07:58.802Z,10.13
2023-02-22T13:09:32.310Z,10.18
2023-02-22T13:11:19.263Z,10.18
2023-02-22T13:12:34.489Z,10.17
2023-02-22T13:14:01.906Z,10.16
2023-02-22T13:15:38.543Z,10.17
2023-02-22T13:17:08.086Z,10.14
2023-02-22T13:18:42.159Z,10.21
2023-02-22T13:20:03.764Z,10.18
2023-02-22T13:21:45.093Z,10.16
2023-02-22T13:23:10.917Z,10.10
2023-02-22T13:24:43.177Z,10.17
2023-02-22T13:26:30.463Z,10.28
2023-02-22T13:27:59.546Z,10.23
2023-02-22T13:29:20.862Z,10.29
2023-02-22T13:31:15.818Z,10.25
2023-02-22T13:32:36.769Z,10.28
2023-02-22T13:34:24.880Z,10.24
2023-02-22T13:35:51.642Z,10.07
2023-02-22T13:37:29.899Z,10.07
2023-02-22T13:39:02.212Z,9.99
2023-02-22T13:40:42.315Z,9.99
2023-02-22T13:42:16.546Z,9.92
2023-02-22T13:44:31.202Z,9.94
2023-02-22T13:46:23.502Z,9.92
2023-02-22T13:48:07.968Z,9.86
2023-02-22T13:49:49.685Z,9.89
2023-02-22T13:51:18.008Z,9.89
2023-02-22T13:52:31.287Z,9.85
2023-02-22T13:54:30.030Z,9.93
2023-02-22T13:55:37.292Z,9.89
2023-02-22T13:56:48.647Z,9.89
2023-02-22T13:58:04.562Z,9.92
2023-02-22T13:59:27.320Z,9.82
2023-02-22T14:00:50.545Z,9.92
2023-02-22T14:01:57.509Z,9.91
2023-02-22T14:03:31.797Z,9.95
2023-02-22T14:04:40.476Z,9.97
2023-02-22T14:05:51.089Z,10.03
2023-02-22T14:07:02.276Z,10.07
2023-02-22T14:08:09.207Z,10.09
2023-02-22T14:09:56.705Z,10.10
2023-02-22T14:11:07.642Z,10.11
2023-02-22T14:12:35.454Z,10.10
2023-02-22T14:13:55.939Z,10.08
2023-02-22T14:15:29.649Z,10.08
2023-02-22T14:16:36.395Z,10.08
2023-02-22T14:18:02.276Z,10.02
2023-02-22T14:19:24.009Z,10.01
2023-02-22T14:20:37.744Z,10.08
2023-02-22T14:22:07.074Z,9.99
2023-02-22T14:23:34.739Z,9.94
2023-02-22T14:24:46.794Z,9.91
2023-02-22T14:25:51.985Z,9.95
2023-02-22T14:27:06.553Z,9.96
2023-02-22T14:28:36.662Z,10.01
2023-02-22T14:29:55.902Z,9.93
2023-02-22T14:31:17.424Z,9.88
2023-02-22T14:32:35.240Z,9.85
2023-02-22T14:34:13.415Z,9.85
2023-02-22T14:35:27.523Z,9.87
2023-02-22T14:36:45.535Z,9.86
2023-02-22T14:38:00.635Z,9.84
2023-02-22T14:39:18.519Z,9.81
2023-02-22T14:40:29.491Z,9.77
2023-02-22T14:41:37.369Z,9.83
2023-02-22T14:42:50.304Z,9.78
2023-02-22T14:43:58.782Z,9.80
2023-02-22T14:45:10.341Z,9.77
2023-02-22T14:46:28.192Z,9.78
2023-02-22T14:47:49.749Z,9.76
2023-02-22T14:49:04.649Z,9.82
2023-02-22T14:50:37.409Z,9.85
2023-02-22T14:51:56.236Z,9.85
2023-02-22T14:53:27.382Z,9.81
2023-02-22T14:54:51.791Z,9.72
2023-02-22T14:56:23.864Z,9.70
2023-02-22T14:57:53.829Z,9.68
2023-02-22T14:59:08.523Z,9.69
2023-02-22T15:00:31.939Z,9.67
2023-02-22T15:01:52.790Z,9.68
2023-02-22T15:03:03.411Z,9.73
2023-02-22T15:04:26.481Z,9.77
2023-02-22T15:05:38.805Z,9.67
2023-02-22T15:06:43.525Z,9.71
2023-02-22T15:08:03.513Z,9.75
2023-02-22T15:09:33.573Z,9.68
2023-02-22T15:10:44.840Z,9.72
2023-02-22T15:11:49.769Z,9.65
2023-02-22T15:13:10.914Z,9.59
2023-02-22T15:14:26.267Z,9.52
2023-02-22T15:15:32.273Z,9.53
2023-02-22T15:16:39.747Z,9.56
2023-02-22T15:17:46.401Z,9.57
2023-02-22T15:19:00.320Z,9.55
2023-02-22T15:20:12.679Z,9.60
2023-02-22T15:21:23.789Z,9.58
2023-02-22T15:22:36.655Z,9.50
2023-02-22T15:23:45.698Z,9.54
2023-02-22T15:25:11.894Z,9.51
2023-02-22T15:26:37.563Z,9.49
2023-02-22T15:27:47.725Z,9.51
2023-02-22T15:28:57.829Z,9.54
2023-02-22T15:30:06.110Z,9.47
2023-02-22T15:31:30.790Z,9.45
2023-02-22T15:32:49.914Z,9.44
2023-02-22T15:33:58.890Z,9.45
2023-02-22T15:35:27.772Z,9.46
2023-02-22T15:36:32.076Z,9.48
2023-02-22T15:37:35.832Z,9.49
2023-02-22T15:38:39.993Z,9.52
2023-02-22T15:39:44.192Z,9.50
2023-02-22T15:40:59.021Z,9.49
2023-02-22T15:42:19.678Z,9.53
2023-02-22T15:43:28.661Z,9.53
2023-02-22T15:44:43.296Z,9.42
2023-02-22T15:45:47.645Z,9.35
2023-02-22T15:46:54.529Z,9.29
2023-02-22T15:47:59.375Z,9.21
2023-02-22T15:49:08.158Z,9.21
2023-02-22T15:50:33.724Z,9.30
2023-02-22T15:51:42.917Z,9.31
2023-02-22T15:53:22.204Z,9.30
2023-02-22T15:54:27.709Z,9.34
2023-02-22T15:55:40.410Z,9.37
2023-02-22T15:56:57.478Z,9.39
2023-02-22T15:58:09.256Z,9.40
2023-02-22T15:59:29.221Z,9.43
2023-02-22T16:00:40.150Z,9.43
2023-02-22T16:01:49.393Z,9.40
2023-02-22T16:02:58.273Z,9.39
2023-02-22T16:04:02.840Z,9.35
2023-02-22T16:05:19.192Z,9.39
2023-02-22T16:06:38.509Z,9.30
2023-02-22T16:07:49.736Z,9.27
2023-02-22T16:08:56.932Z,9.27
2023-02-22T16:10:08.278Z,9.25
2023-02-22T16:11:39.890Z,9.24
2023-02-22T16:12:43.759Z,9.25
2023-02-22T16:13:55.144Z,9.22
2023-02-22T16:15:00.053Z,9.25